Time;durP1;ratioP1;P1;durP2;ratioP2;P2;SDS_P1;SDS_P2;PMS_P1;PMS_P2;Temp;Humidity;BMP_temperature;BMP_pressure;BME280_temperature;BME280_humidity;BME280_pressure;Samples;Min_cycle;Max_cycle;Signal;HPM_P1;HPM_P2
2021/06/07 00:00:29;;;;;;;16.60;6.20;;;;;;;15.67;55.25;99177.06;126024;1093;102939;-78
2021/06/07 00:03:17;;;;;;;17.57;5.90;;;;;;;15.69;55.27;99183.96;125936;1093;102907;-77
2021/06/07 00:05:46;;;;;;;16.30;6.83;;;;;;;15.70;55.32;99185.66;126022;1093;102962;-77
2021/06/07 00:08:14;;;;;;;13.50;5.73;;;;;;;15.71;55.09;99181.16;125977;1093;102913;-78
2021/06/07 00:10:43;;;;;;;12.80;5.83;;;;;;;15.70;55.38;99185.66;125991;1093;102996;-80
2021/06/07 00:13:12;;;;;;;16.67;5.73;;;;;;;15.71;55.49;99186.52;126007;1093;103010;-76
2021/06/07 00:15:42;;;;;;;13.07;5.73;;;;;;;15.71;55.39;99187.34;125998;1093;103103;-78
2021/06/07 00:18:11;;;;;;;14.37;5.83;;;;;;;15.73;55.36;99182.69;126019;1093;102942;-78
2021/06/07 00:20:47;;;;;;;16.97;6.23;;;;;;;15.73;55.50;99184.55;125748;1093;103438;-78
2021/06/07 00:23:18;;;;;;;19.77;5.50;;;;;;;15.73;55.51;99184.55;125989;1093;103003;-79
2021/06/07 00:25:47;;;;;;;14.53;5.90;;;;;;;15.72;55.66;99178.31;125988;1093;102997;-77
2021/06/07 00:28:15;;;;;;;12.80;5.50;;;;;;;15.75;55.56;99183.40;125983;1092;103052;-78
2021/06/07 00:30:43;;;;;;;13.77;5.37;;;;;;;15.73;55.72;99181.86;126014;1093;102905;-79
2021/06/07 00:33:12;;;;;;;14.07;5.47;;;;;;;15.73;55.62;99181.86;125717;1093;103016;-79
2021/06/07 00:35:41;;;;;;;15.03;5.67;;;;;;;15.71;55.79;99186.52;125721;1093;103010;-78
2021/06/07 00:38:10;;;;;;;14.63;5.30;;;;;;;15.69;55.81;99181.28;125985;1093;102978;-78
2021/06/07 00:40:39;;;;;;;13.47;5.83;;;;;;;15.67;55.82;99188.65;125989;1091;103003;-79
2021/06/07 00:43:07;;;;;;;14.83;5.67;;;;;;;15.66;55.86;99186.95;126041;1093;102910;-78
2021/06/07 00:45:40;;;;;;;15.87;5.97;;;;;;;15.62;55.94;99177.50;126009;1092;102914;-78
2021/06/07 00:48:10;;;;;;;16.80;6.27;;;;;;;15.57;55.93;99183.27;125979;1093;103108;-78
2021/06/07 00:51:01;;;;;;;14.73;5.80;;;;;;;15.54;55.96;99178.18;125998;1093;102906;-79
2021/06/07 00:53:30;;;;;;;13.47;5.40;;;;;;;15.48;55.98;99179.61;125954;1091;102974;-81
2021/06/07 00:56:03;;;;;;;14.63;5.80;;;;;;;15.47;56.02;99175.23;125955;1092;102920;-78
2021/06/07 00:58:35;;;;;;;15.15;5.55;;;;;;;15.48;56.10;99176.09;125938;1091;103172;-79
2021/06/07 01:01:10;;;;;;;15.57;6.13;;;;;;;15.49;56.10;99177.75;125939;1091;103527;-79
2021/06/07 01:03:41;;;;;;;12.53;5.53;;;;;;;15.50;56.19;99176.77;125951;1091;103025;-80
2021/06/07 01:06:11;;;;;;;11.13;5.13;;;;;;;15.52;56.14;99176.64;125944;1093;102933;-78
2021/06/07 01:08:47;;;;;;;16.18;5.98;;;;;;;15.52;56.28;99177.48;126029;1093;102907;-78
2021/06/07 01:11:17;;;;;;;13.38;5.98;;;;;;;15.53;56.23;99172.98;125988;1093;103046;-79
2021/06/07 01:13:47;;;;;;;16.70;6.20;;;;;;;15.54;56.25;99183.55;126010;1093;103052;-79
2021/06/07 01:16:17;;;;;;;13.60;5.97;;;;;;;15.56;56.26;99180.73;126049;1093;103031;-77
2021/06/07 01:18:48;;;;;;;14.13;6.33;;;;;;;15.55;56.32;99179.05;125957;1093;102970;-78
2021/06/07 01:21:23;;;;;;;15.43;5.87;;;;;;;15.56;56.26;99180.73;125987;1093;102945;-78
2021/06/07 01:23:54;;;;;;;13.03;6.20;;;;;;;15.57;56.33;99175.22;125982;1092;103023;-79
2021/06/07 01:26:25;;;;;;;12.10;5.47;;;;;;;15.57;56.64;99175.22;125985;1091;103007;-78
2021/06/07 01:28:56;;;;;;;11.10;5.60;;;;;;;15.58;56.40;99179.59;125997;1092;103144;-79
2021/06/07 01:31:24;;;;;;;13.40;6.07;;;;;;;15.59;56.51;99175.09;125995;1093;103014;-78
2021/06/07 01:33:55;;;;;;;17.03;5.87;;;;;;;15.60;56.53;99174.11;125951;1092;102919;-77
2021/06/07 01:36:25;;;;;;;14.50;6.00;;;;;;;15.58;56.45;99171.55;125975;1092;103387;-78
2021/06/07 01:38:53;;;;;;;12.83;6.43;;;;;;;15.58;56.72;99168.88;126054;1093;102985;-78
2021/06/07 01:41:22;;;;;;;15.23;6.37;;;;;;;15.59;56.53;99169.73;125979;1093;102898;-77
2021/06/07 01:43:51;;;;;;;15.43;6.87;;;;;;;15.61;56.57;99173.13;125928;1091;102905;-77
2021/06/07 01:46:20;;;;;;;14.50;6.87;;;;;;;15.62;56.61;99167.60;126024;1093;103024;-78
2021/06/07 01:48:48;;;;;;;18.00;6.73;;;;;;;15.63;56.64;99163.10;125992;1093;103015;-76
2021/06/07 01:51:17;;;;;;;17.20;6.83;;;;;;;15.66;56.65;99170.00;126041;1093;103023;-80
2021/06/07 01:53:46;;;;;;;16.23;6.63;;;;;;;15.66;56.63;99167.33;125998;1093;103033;-78
2021/06/07 01:56:16;;;;;;;14.27;6.80;;;;;;;15.66;56.70;99162.83;125983;1093;102988;-78
2021/06/07 01:58:46;;;;;;;16.05;7.20;;;;;;;15.69;56.81;99170.55;126036;1093;102911;-79
2021/06/07 02:01:20;;;;;;;16.23;6.97;;;;;;;15.70;56.89;99161.52;126010;1093;103055;-77
2021/06/07 02:03:51;;;;;;;18.40;7.03;;;;;;;15.73;56.89;99171.13;126011;1092;103124;-77
2021/06/07 02:06:25;;;;;;;17.30;7.33;;;;;;;15.74;57.01;99170.98;126083;1092;103009;-78
2021/06/07 02:08:55;;;;;;;17.53;7.73;;;;;;;15.74;56.88;99168.30;125985;1093;103008;-78
2021/06/07 02:11:31;;;;;;;15.83;7.27;;;;;;;15.75;56.92;99169.16;126043;1093;103002;-76
2021/06/07 02:14:03;;;;;;;17.73;7.47;;;;;;;15.77;56.97;99167.19;126002;1092;102987;-79
2021/06/07 02:16:37;;;;;;;16.48;7.18;;;;;;;15.78;57.05;99175.06;125995;1093;102984;-79
2021/06/07 02:19:08;;;;;;;18.83;7.57;;;;;;;15.81;57.08;99170.41;125784;1092;103021;-79
2021/06/07 02:21:39;;;;;;;17.43;8.03;;;;;;;15.84;57.23;99170.98;125970;1093;103006;-78
2021/06/07 02:24:10;;;;;;;13.43;6.83;;;;;;;15.83;57.04;99171.12;126041;1091;103021;-78
2021/06/07 02:26:40;;;;;;;17.57;7.67;;;;;;;15.82;57.07;99170.28;125986;1092;102964;-77
2021/06/07 02:29:13;;;;;;;13.77;7.07;;;;;;;15.82;57.18;99172.97;125801;1093;102904;-80
2021/06/07 02:31:43;;;;;;;15.97;6.50;;;;;;;15.81;57.20;99170.41;126019;1093;102951;-80
2021/06/07 02:34:13;;;;;;;14.03;7.00;;;;;;;15.79;57.18;99162.52;125986;1092;103009;-79
2021/06/07 02:36:43;;;;;;;14.03;6.53;;;;;;;15.78;57.22;99172.39;126015;1093;103370;-79
2021/06/07 02:39:15;;;;;;;14.63;7.27;;;;;;;15.79;57.14;99175.93;126005;1091;102936;-80
2021/06/07 02:41:45;;;;;;;17.47;7.30;;;;;;;15.78;57.20;99167.02;125983;1093;102988;-80
2021/06/07 02:44:13;;;;;;;16.73;7.17;;;;;;;15.78;57.17;99169.70;126013;1093;102985;-80
2021/06/07 02:46:42;;;;;;;17.10;7.00;;;;;;;15.80;57.31;99166.03;125972;1093;103077;-79
2021/06/07 02:49:11;;;;;;;14.57;6.63;;;;;;;15.82;57.33;99167.60;125763;1093;103029;-80
2021/06/07 02:51:40;;;;;;;19.30;7.90;;;;;;;15.84;57.38;99172.81;126019;1092;102903;-79
2021/06/07 02:54:09;;;;;;;12.93;6.83;;;;;;;15.85;57.32;99172.68;125771;1093;102929;-80
2021/06/07 02:56:38;;;;;;;13.27;6.80;;;;;;;15.86;57.41;99168.15;125996;1093;103003;-79
2021/06/07 02:59:06;;;;;;;19.90;7.33;;;;;;;15.89;57.39;99166.08;125966;1093;102997;-80
2021/06/07 03:01:35;;;;;;;14.40;7.07;;;;;;;15.90;57.48;99167.73;126000;1092;103010;-78
2021/06/07 03:04:04;;;;;;;16.80;7.00;;;;;;;15.92;57.48;99172.98;125985;1093;103003;-79
2021/06/07 03:06:32;;;;;;;16.53;6.50;;;;;;;15.92;57.50;99173.80;126002;1093;102996;-77
2021/06/07 03:09:00;;;;;;;17.27;6.80;;;;;;;15.92;57.61;99173.80;125755;1093;103073;-77
2021/06/07 03:11:29;;;;;;;16.73;7.47;;;;;;;15.91;57.47;99168.60;125979;1093;102990;-76
2021/06/07 03:13:57;;;;;;;14.83;7.13;;;;;;;15.90;57.52;99186.52;125986;1093;102933;-77
2021/06/07 03:16:26;;;;;;;16.40;7.17;;;;;;;15.89;57.64;99179.48;126019;1092;102993;-76
2021/06/07 03:18:54;;;;;;;18.50;7.40;;;;;;;15.78;57.55;99177.75;126094;1093;103108;-79
2021/06/07 03:21:23;;;;;;;17.47;7.63;;;;;;;15.76;57.63;99185.09;125983;1093;103098;-76
2021/06/07 03:23:52;;;;;;;16.63;6.70;;;;;;;15.72;57.51;99182.84;126033;1092;103173;-77
2021/06/07 03:26:21;;;;;;;19.37;8.47;;;;;;;15.66;57.65;99180.73;126016;1093;102932;-79
2021/06/07 03:28:50;;;;;;;17.80;7.53;;;;;;;15.67;57.76;99185.10;125998;1091;103000;-80
2021/06/07 03:31:20;;;;;;;17.73;8.20;;;;;;;15.66;57.87;99184.27;126018;1093;103018;-79
2021/06/07 03:33:48;;;;;;;18.27;7.40;;;;;;;15.66;57.92;99181.59;125998;1092;102996;-79
2021/06/07 03:36:18;;;;;;;13.63;6.80;;;;;;;15.67;58.06;99179.74;126010;1093;102989;-79
2021/06/07 03:38:46;;;;;;;17.27;7.77;;;;;;;15.70;57.94;99184.83;125988;1093;102985;-81
2021/06/07 03:41:15;;;;;;;17.17;6.93;;;;;;;15.71;57.94;99179.30;125953;1091;103028;-81
2021/06/07 03:43:44;;;;;;;15.80;6.67;;;;;;;15.72;57.93;99175.63;125996;1093;103003;-79
2021/06/07 03:46:13;;;;;;;13.65;6.05;;;;;;;15.73;57.90;99169.28;126044;1093;102981;-81
2021/06/07 03:48:41;;;;;;;12.67;6.00;;;;;;;15.75;57.95;99179.88;125960;1093;102917;-79
2021/06/07 03:51:10;;;;;;;14.70;6.17;;;;;;;15.73;58.05;99176.50;126009;1093;103142;-81
2021/06/07 03:53:39;;;;;;;14.27;6.70;;;;;;;15.73;58.06;99179.17;126036;1093;102994;-81
2021/06/07 03:56:07;;;;;;;13.50;6.43;;;;;;;15.73;58.03;99182.69;125970;1092;104645;-80
2021/06/07 03:58:36;;;;;;;11.13;5.67;;;;;;;15.75;58.18;99178.03;125992;1093;102927;-79
2021/06/07 04:01:04;;;;;;;13.53;6.50;;;;;;;15.78;58.08;99184.97;125926;1091;102996;-79
2021/06/07 04:03:34;;;;;;;12.70;6.37;;;;;;;15.81;58.24;99183.82;126001;1093;102932;-80
2021/06/07 04:06:03;;;;;;;14.37;6.77;;;;;;;15.84;58.27;99187.08;125987;1092;102928;-82
2021/06/07 04:08:32;;;;;;;17.90;6.70;;;;;;;15.88;58.22;99187.66;125899;1093;103078;-81
2021/06/07 04:11:00;;;;;;;14.90;6.53;;;;;;;15.89;58.46;99179.48;125942;1093;102993;-82
2021/06/07 04:13:29;;;;;;;15.13;6.80;;;;;;;15.94;58.39;99187.09;126035;1093;102987;-79
2021/06/07 04:15:57;;;;;;;13.80;6.40;;;;;;;16.00;58.48;99191.03;125952;1093;103019;-78
2021/06/07 04:18:25;;;;;;;15.77;6.33;;;;;;;16.03;58.47;99191.61;126016;1093;102930;-76
2021/06/07 04:20:54;;;;;;;14.70;6.05;;;;;;;16.08;58.52;99193.84;125972;1093;103055;-74
2021/06/07 04:23:23;;;;;;;17.03;6.77;;;;;;;16.14;58.28;99197.77;125992;1092;103173;-75
2021/06/07 04:25:51;;;;;;;12.73;6.00;;;;;;;16.19;58.62;99190.14;125922;1093;103028;-76
2021/06/07 04:28:20;;;;;;;14.23;6.77;;;;;;;16.24;58.46;99195.09;126013;1091;103000;-75
2021/06/07 04:30:49;;;;;;;17.10;7.40;;;;;;;16.29;58.49;99196.34;125950;1093;103080;-74
2021/06/07 04:33:17;;;;;;;21.87;6.60;;;;;;;16.36;58.52;99193.91;125888;1093;102951;-74
2021/06/07 04:35:45;;;;;;;11.73;6.20;;;;;;;16.42;58.49;99193.33;125906;1093;102900;-73
2021/06/07 04:38:14;;;;;;;16.77;6.80;;;;;;;16.48;58.49;99187.38;125972;1091;102980;-76
2021/06/07 04:40:44;;;;;;;18.35;6.75;;;;;;;16.55;58.79;99195.67;125970;1091;103408;-78
2021/06/07 04:43:14;;;;;;;13.57;6.53;;;;;;;16.63;58.84;99195.80;125899;1093;102996;-79
2021/06/07 04:45:44;;;;;;;15.73;6.83;;;;;;;16.71;58.52;99200.41;126424;1093;102972;-79
2021/06/07 04:48:13;;;;;;;15.20;6.37;;;;;;;16.78;58.65;99204.20;125903;1093;102929;-81
2021/06/07 04:50:42;;;;;;;17.80;7.37;;;;;;;16.89;58.92;99216.63;125944;1093;103012;-80
2021/06/07 04:53:12;;;;;;;19.40;6.67;;;;;;;16.97;58.85;99210.52;126007;1093;102935;-80
2021/06/07 04:55:44;;;;;;;14.13;6.47;;;;;;;17.07;58.64;99205.09;126041;1093;102913;-80
2021/06/07 04:58:27;;;;;;;14.43;6.40;;;;;;;17.17;58.61;99207.71;125996;1093;103174;-73
2021/06/07 05:00:59;;;;;;;13.50;6.03;;;;;;;17.24;58.94;99209.66;126231;1093;102906;-79
2021/06/07 05:03:29;;;;;;;15.23;6.73;;;;;;;17.30;58.99;99208.20;125972;1092;102905;-76
2021/06/07 05:05:59;;;;;;;14.60;6.55;;;;;;;17.38;59.01;99204.74;126077;1093;103023;-76
2021/06/07 05:08:30;;;;;;;12.33;5.87;;;;;;;17.43;58.64;99204.30;125988;1093;103000;-75
2021/06/07 05:10:59;;;;;;;13.30;5.70;;;;;;;17.49;59.10;99209.08;126046;1093;102900;-76
2021/06/07 05:13:28;;;;;;;15.90;6.03;;;;;;;17.53;58.96;99207.74;126071;1093;103071;-81
2021/06/07 05:15:58;;;;;;;13.73;6.33;;;;;;;17.53;58.68;99213.98;126085;1093;103568;-84
2021/06/07 05:18:27;;;;;;;13.53;5.60;;;;;;;17.57;58.95;99211.82;126089;1093;102996;-81
2021/06/07 05:20:55;;;;;;;17.23;6.80;;;;;;;17.60;58.86;99211.52;126202;1093;103332;-84
2021/06/07 05:23:25;;;;;;;16.00;6.87;;;;;;;17.59;58.77;99211.69;126125;1093;103550;-83
2021/06/07 05:25:54;;;;;;;19.33;7.73;;;;;;;17.60;58.79;99216.89;126249;1093;103018;-79
2021/06/07 05:28:22;;;;;;;16.40;7.27;;;;;;;17.62;58.96;99214.07;126012;1093;103023;-78
2021/06/07 05:30:52;;;;;;;16.67;7.03;;;;;;;17.65;58.80;99219.14;125991;1093;102994;-77
2021/06/07 05:33:20;;;;;;;13.90;6.40;;;;;;;17.67;58.78;99211.77;126068;1091;103028;-78
2021/06/07 05:35:51;;;;;;;14.67;6.43;;;;;;;17.74;58.63;99222.75;126006;1092;103354;-78
2021/06/07 05:38:21;;;;;;;18.07;7.23;;;;;;;17.78;58.62;99216.89;125864;1093;103071;-79
2021/06/07 05:40:53;;;;;;;17.17;6.67;;;;;;;17.86;58.69;99224.21;125937;1093;103015;-78
2021/06/07 05:43:23;;;;;;;18.83;7.73;;;;;;;17.98;58.80;99224.80;125981;1093;102877;-77
2021/06/07 05:45:53;;;;;;;16.20;7.33;;;;;;;18.07;58.63;99223.05;125918;1093;103055;-78
2021/06/07 05:48:22;;;;;;;12.97;6.57;;;;;;;18.19;59.10;99227.19;125920;1093;103055;-77
2021/06/07 05:50:52;;;;;;;24.33;7.73;;;;;;;18.28;59.04;99220.00;125979;1093;102929;-78
2021/06/07 05:53:21;;;;;;;16.67;6.97;;;;;;;18.36;58.73;99228.14;125899;1093;102990;-79
2021/06/07 05:55:49;;;;;;;16.17;6.80;;;;;;;18.43;58.66;99228.34;125967;1092;102988;-78
2021/06/07 05:58:20;;;;;;;19.43;7.70;;;;;;;18.51;58.90;99227.57;125950;1092;102941;-77
2021/06/07 06:00:52;;;;;;;16.85;7.40;;;;;;;18.62;58.68;99227.27;125965;1092;103004;-76
2021/06/07 06:03:21;;;;;;;14.63;6.80;;;;;;;18.75;58.79;99226.83;125912;1092;103687;-78
2021/06/07 06:05:49;;;;;;;16.20;7.47;;;;;;;18.85;58.60;99218.65;125929;1093;103038;-78
2021/06/07 06:08:19;;;;;;;18.37;8.20;;;;;;;18.93;59.08;99228.61;125974;1093;102937;-77
2021/06/07 06:10:47;;;;;;;24.20;9.87;;;;;;;19.00;58.80;99235.91;126014;1093;102905;-79
2021/06/07 06:13:37;;;;;;;20.33;10.47;;;;;;;19.14;59.02;99234.47;125974;1091;102882;-76
2021/06/07 06:16:05;;;;;;;22.03;9.10;;;;;;;19.31;58.73;99239.89;125981;1093;103031;-79
2021/06/07 06:18:37;;;;;;;20.23;9.53;;;;;;;19.44;59.10;99234.88;125858;1093;102895;-73
2021/06/07 06:21:06;;;;;;;21.05;9.05;;;;;;;19.58;58.68;99237.92;125963;1093;103025;-77
2021/06/07 06:23:35;;;;;;;18.40;9.03;;;;;;;19.67;58.52;99233.41;125921;1091;103022;-76
2021/06/07 06:26:03;;;;;;;21.60;9.53;;;;;;;19.78;58.88;99238.45;125913;1092;102922;-77
2021/06/07 06:28:35;;;;;;;16.83;7.70;;;;;;;19.91;58.66;99238.02;125922;1092;102994;-77
2021/06/07 06:31:05;;;;;;;17.47;8.30;;;;;;;20.05;58.69;99241.89;125909;1093;102928;-79
2021/06/07 06:33:34;;;;;;;18.80;7.83;;;;;;;20.20;58.42;99240.19;125930;1093;102932;-77
2021/06/07 06:36:03;;;;;;;17.47;7.77;;;;;;;20.37;58.60;99240.18;125982;1091;103084;-76
2021/06/07 06:38:31;;;;;;;17.37;8.03;;;;;;;20.55;58.67;99242.67;125960;1093;102911;-76
2021/06/07 06:40:59;;;;;;;19.03;7.87;;;;;;;20.70;58.49;99237.40;125933;1093;102924;-74
2021/06/07 06:43:28;;;;;;;17.93;7.33;;;;;;;20.85;58.57;99239.42;125920;1093;103057;-74
2021/06/07 06:45:56;;;;;;;17.23;7.40;;;;;;;21.03;58.39;99231.07;125991;1093;102927;-73
2021/06/07 06:48:25;;;;;;;16.33;7.43;;;;;;;21.22;58.54;99236.03;125943;1093;103068;-71
2021/06/07 06:50:54;;;;;;;16.40;8.00;;;;;;;21.49;58.68;99239.30;125961;1093;102930;-68
2021/06/07 06:53:24;;;;;;;18.43;7.13;;;;;;;21.91;58.45;99233.63;125809;1092;103001;-69
2021/06/07 06:55:53;;;;;;;21.20;7.60;;;;;;;22.67;58.38;99235.46;125910;1093;102930;-71
2021/06/07 06:58:22;;;;;;;12.87;6.20;;;;;;;24.17;57.64;99235.14;125921;1093;102959;-70
2021/06/07 07:00:51;;;;;;;13.73;5.80;;;;;;;25.60;56.70;99233.86;126007;1093;103527;-70
2021/06/07 07:03:21;;;;;;;14.30;5.85;;;;;;;26.88;56.72;99223.81;125948;1093;103068;-71
2021/06/07 07:05:50;;;;;;;14.77;5.40;;;;;;;28.10;56.86;99234.91;126461;1093;102881;-70
2021/06/07 07:08:21;;;;;;;12.53;5.63;;;;;;;28.73;56.79;99224.90;125946;1093;102963;-71
2021/06/07 07:10:49;;;;;;;9.37;5.23;;;;;;;29.20;57.49;99232.58;125951;1092;102907;-70
2021/06/07 07:13:18;;;;;;;8.70;5.17;;;;;;;29.18;58.14;99240.19;125939;1093;102917;-74
2021/06/07 07:15:46;;;;;;;15.35;5.30;;;;;;;29.32;57.74;99229.89;126013;1093;103408;-74
2021/06/07 07:18:15;;;;;;;22.20;7.47;;;;;;;29.52;56.93;99226.91;125967;1093;102915;-69
2021/06/07 07:20:44;;;;;;;18.20;6.55;;;;;;;29.64;56.54;99226.13;125889;1091;103354;-72
2021/06/07 07:23:12;;;;;;;23.50;8.43;;;;;;;29.87;55.98;99233.58;125987;1093;102959;-73
2021/06/07 07:25:41;;;;;;;20.40;6.50;;;;;;;30.54;55.16;99223.42;125784;1093;102935;-75
2021/06/07 07:28:10;;;;;;;12.23;5.07;;;;;;;31.48;54.59;99232.55;126348;1093;102904;-74
2021/06/07 07:30:39;;;;;;;20.00;6.60;;;;;;;32.16;54.27;99235.44;125991;1093;102898;-74
2021/06/07 07:33:11;;;;;;;12.17;5.13;;;;;;;32.67;53.46;99231.80;125942;1092;103092;-75
2021/06/07 07:35:41;;;;;;;17.20;6.00;;;;;;;33.36;53.39;99232.42;126063;1093;102909;-73
2021/06/07 07:38:10;;;;;;;20.03;6.30;;;;;;;33.98;52.76;99222.88;125968;1093;103017;-73
2021/06/07 07:40:41;;;;;;;22.90;8.00;;;;;;;33.99;53.14;99232.01;125939;1093;102999;-73
2021/06/07 07:43:10;;;;;;;10.13;4.80;;;;;;;34.68;52.31;99229.45;125930;1093;102991;-72
2021/06/07 07:45:39;;;;;;;16.70;6.13;;;;;;;35.31;51.14;99231.42;125900;1093;103002;-74
2021/06/07 07:48:09;;;;;;;29.20;11.30;;;;;;;35.79;50.51;99236.80;125974;1092;102935;-72
2021/06/07 07:50:38;;;;;;;13.90;4.97;;;;;;;36.46;50.04;99236.81;125936;1093;102952;-70
2021/06/07 07:53:06;;;;;;;12.47;4.67;;;;;;;36.93;49.91;99228.38;125945;1093;102927;-72
2021/06/07 07:55:35;;;;;;;12.17;5.10;;;;;;;37.64;49.50;99231.12;125866;1093;103354;-72
2021/06/07 07:58:10;;;;;;;15.27;4.73;;;;;;;38.16;48.78;99237.11;125865;1091;102991;-74
2021/06/07 08:00:41;;;;;;;18.33;4.93;;;;;;;38.49;48.21;99226.30;125913;1093;102983;-73
2021/06/07 08:03:09;;;;;;;16.43;4.70;;;;;;;38.82;47.75;99229.25;125893;1092;102940;-71
2021/06/07 08:05:38;;;;;;;22.97;7.83;;;;;;;38.93;47.41;99224.42;125960;1092;102987;-72
2021/06/07 08:08:07;;;;;;;13.20;5.40;;;;;;;39.33;46.89;99223.38;125871;1091;103100;-72
2021/06/07 08:10:37;;;;;;;10.57;4.27;;;;;;;39.46;46.13;99228.20;125834;1093;103054;-74
2021/06/07 08:13:05;;;;;;;14.13;5.13;;;;;;;39.49;45.54;99229.54;125915;1093;103025;-73
2021/06/07 08:15:34;;;;;;;14.20;4.90;;;;;;;39.65;44.72;99227.34;125864;1093;103007;-71
2021/06/07 08:18:04;;;;;;;17.73;4.00;;;;;;;39.62;44.42;99239.92;125959;1093;102988;-71
2021/06/07 08:20:33;;;;;;;10.73;4.90;;;;;;;39.55;43.98;99231.13;125913;1092;102996;-73
2021/06/07 08:23:02;;;;;;;13.50;4.70;;;;;;;39.45;42.93;99229.33;125930;1092;103016;-73
2021/06/07 08:25:32;;;;;;;10.93;3.90;;;;;;;39.60;42.88;99225.48;125952;1093;103002;-73
2021/06/07 08:28:01;;;;;;;7.87;3.47;;;;;;;39.67;41.78;99239.85;125804;1092;102901;-73
2021/06/07 08:30:30;;;;;;;8.27;3.03;;;;;;;39.67;41.75;99228.72;125940;1092;102905;-71
2021/06/07 08:32:59;;;;;;;9.13;4.10;;;;;;;39.81;41.26;99226.02;125933;1092;102948;-70
2021/06/07 08:35:29;;;;;;;9.57;3.10;;;;;;;39.83;41.29;99232.11;125925;1093;103390;-72
2021/06/07 08:37:57;;;;;;;5.27;3.30;;;;;;;40.00;40.01;99228.77;126280;1093;102898;-72
2021/06/07 08:40:26;;;;;;;9.70;3.17;;;;;;;40.10;39.62;99232.52;125936;1093;103048;-73
2021/06/07 08:42:54;;;;;;;8.13;3.00;;;;;;;40.11;39.34;99229.41;125892;1091;102932;-73
2021/06/07 08:45:24;;;;;;;9.37;3.37;;;;;;;40.21;38.63;99231.18;125915;1093;102939;-73
2021/06/07 08:47:54;;;;;;;7.37;3.27;;;;;;;40.17;38.45;99227.34;125924;1093;103052;-72
2021/06/07 08:50:29;;;;;;;5.60;2.97;;;;;;;40.05;37.73;99225.05;125899;1093;103058;-76
2021/06/07 08:52:57;;;;;;;13.80;3.93;;;;;;;39.95;37.13;99226.06;125926;1091;103023;-72
2021/06/07 08:55:31;;;;;;;10.53;4.60;;;;;;;38.88;37.08;99224.48;125940;1093;102936;-71
2021/06/07 08:58:05;;;;;;;7.13;3.80;;;;;;;37.89;36.70;99226.52;125681;1093;102905;-72
2021/06/07 09:00:38;;;;;;;8.77;4.67;;;;;;;37.08;36.04;99235.86;125880;1093;103180;-70
2021/06/07 09:03:15;;;;;;;12.90;4.40;;;;;;;36.08;35.68;99229.92;125941;1093;103019;-73
2021/06/07 09:05:46;;;;;;;8.93;4.57;;;;;;;36.01;35.07;99227.44;125887;1093;102917;-71
2021/06/07 09:08:16;;;;;;;8.08;3.58;;;;;;;35.96;34.76;99230.98;125931;1092;102961;-73
2021/06/07 09:10:50;;;;;;;13.37;4.07;;;;;;;35.94;34.24;99230.44;125889;1093;103055;-72
2021/06/07 09:13:22;;;;;;;6.73;3.97;;;;;;;36.04;34.56;99230.47;125841;1093;102913;-74
2021/06/07 09:15:53;;;;;;;6.93;3.97;;;;;;;36.19;34.00;99226.05;125879;1093;103010;-73
2021/06/07 09:18:44;;;;;;;9.90;4.10;;;;;;;36.29;33.94;99233.51;125818;1093;102911;-72
2021/06/07 09:21:22;;;;;;;6.50;3.60;;;;;;;36.29;33.55;99228.78;125583;1092;103036;-73
2021/06/07 09:24:02;;;;;;;8.73;4.20;;;;;;;36.30;33.34;99229.63;125793;1093;103086;-71
2021/06/07 09:26:30;;;;;;;9.77;3.50;;;;;;;36.25;33.05;99221.33;125865;1093;103537;-72
2021/06/07 09:29:06;;;;;;;7.37;3.80;;;;;;;36.27;32.88;99219.11;125901;1093;103126;-73
2021/06/07 09:31:38;;;;;;;4.90;2.98;;;;;;;36.15;33.18;99225.76;125780;1093;103061;-71
2021/06/07 09:34:08;;;;;;;12.90;4.10;;;;;;;35.78;33.16;99221.30;125796;1093;103045;-72
2021/06/07 09:36:44;;;;;;;10.03;3.73;;;;;;;35.28;33.05;99229.20;125904;1093;102906;-73
2021/06/07 09:39:18;;;;;;;7.00;3.50;;;;;;;34.73;32.82;99219.28;125905;1093;101816;-71
2021/06/07 09:41:49;;;;;;;12.87;3.80;;;;;;;34.39;32.28;99219.61;125867;1093;103091;-73
2021/06/07 09:44:31;;;;;;;9.97;3.43;;;;;;;34.26;32.52;99223.64;125877;1093;103364;-74
2021/06/07 09:47:28;;;;;;;9.30;3.13;;;;;;;34.11;32.03;99220.78;125842;1093;102901;-71
2021/06/07 09:50:05;;;;;;;7.13;3.90;;;;;;;33.82;31.50;99216.38;125739;1092;103005;-71
2021/06/07 09:52:44;;;;;;;7.87;3.90;;;;;;;33.53;31.80;99221.33;125936;1091;103043;-73
2021/06/07 09:55:17;;;;;;;7.97;3.90;;;;;;;33.29;31.58;99218.84;126044;1093;103458;-74
2021/06/07 09:57:52;;;;;;;9.47;3.50;;;;;;;33.17;31.38;99220.90;126093;1091;103423;-75
2021/06/07 10:00:43;;;;;;;7.77;3.37;;;;;;;33.08;31.46;99215.02;126034;1092;103432;-73
2021/06/07 10:03:26;;;;;;;8.18;3.70;;;;;;;32.78;30.98;99216.27;125973;1092;103078;-73
2021/06/07 10:06:17;;;;;;;8.47;3.30;;;;;;;32.44;30.89;99202.56;125995;1093;103026;-74
2021/06/07 10:08:48;;;;;;;5.33;3.30;;;;;;;32.13;30.99;99193.82;126013;1091;102900;-75
2021/06/07 10:11:24;;;;;;;6.55;3.75;;;;;;;31.86;30.56;99198.06;125959;1092;102963;-74
2021/06/07 10:14:19;;;;;;;10.20;4.23;;;;;;;31.43;30.55;99194.82;126009;1093;102929;-76
2021/06/07 10:17:02;;;;;;;11.50;3.30;;;;;;;31.07;30.43;99194.10;125984;1093;102981;-72
2021/06/07 10:19:46;;;;;;;8.48;3.75;;;;;;;30.78;30.51;99180.31;125970;1092;103019;-73
2021/06/07 10:22:17;;;;;;;6.47;3.10;;;;;;;30.40;29.84;99187.13;125988;1091;103132;-71
2021/06/07 10:24:46;;;;;;;6.63;3.50;;;;;;;30.08;30.33;99182.01;125955;1091;102999;-70
2021/06/07 10:27:14;;;;;;;7.03;3.20;;;;;;;30.01;30.06;99190.36;125788;1093;103077;-72
2021/06/07 10:29:43;;;;;;;8.37;3.63;;;;;;;29.81;29.61;99183.25;126004;1093;103001;-71
2021/06/07 10:32:17;;;;;;;5.20;3.37;;;;;;;29.57;30.33;99182.36;125942;1092;102999;-71
2021/06/07 10:34:57;;;;;;;6.70;3.20;;;;;;;29.39;30.36;99181.37;126024;1093;102938;-71
2021/06/07 10:37:28;;;;;;;10.13;3.57;;;;;;;29.24;30.22;99178.17;125994;1093;103074;-70
2021/06/07 10:40:18;;;;;;;9.40;3.75;;;;;;;28.97;29.75;99179.35;125858;1092;103132;-72
2021/06/07 10:43:00;;;;;;;10.00;4.33;;;;;;;28.67;29.76;99190.23;126007;1092;103019;-71
2021/06/07 10:45:31;;;;;;;6.63;3.77;;;;;;;28.39;30.00;99175.14;126005;1091;103047;-72
2021/06/07 10:48:01;;;;;;;9.63;4.00;;;;;;;28.15;30.23;99188.63;126078;1093;103061;-72
2021/06/07 10:50:35;;;;;;;8.57;4.13;;;;;;;27.93;30.11;99183.52;126001;1093;102989;-72
2021/06/07 10:53:06;;;;;;;14.17;4.40;;;;;;;27.65;30.23;99186.70;126018;1092;102997;-74
2021/06/07 10:55:42;;;;;;;10.55;4.30;;;;;;;27.58;30.38;99178.52;125964;1093;102935;-83
2021/06/07 10:58:14;;;;;;;8.10;3.80;;;;;;;27.49;30.30;99183.42;125993;1093;103162;-81
2021/06/07 11:00:45;;;;;;;14.13;4.70;;;;;;;27.24;30.42;99177.86;125745;1093;102939;-80
2021/06/07 11:03:16;;;;;;;10.77;4.07;;;;;;;27.06;30.74;99181.31;125961;1093;103009;-72
2021/06/07 11:05:46;;;;;;;10.23;4.13;;;;;;;26.93;30.84;99179.48;126030;1092;102935;-73
2021/06/07 11:08:29;;;;;;;11.53;4.03;;;;;;;26.88;30.77;99168.38;126075;1092;102988;-72
2021/06/07 11:11:07;;;;;;;7.67;3.60;;;;;;;26.85;30.84;99176.99;125960;1093;102920;-75
2021/06/07 11:13:54;;;;;;;9.60;4.37;;;;;;;26.79;30.84;99173.22;126001;1092;102907;-80
2021/06/07 11:16:38;;;;;;;13.60;4.40;;;;;;;26.77;30.98;99174.47;126001;1092;103389;-77
2021/06/07 11:19:14;;;;;;;10.33;3.90;;;;;;;26.78;31.02;99165.23;125737;1092;102916;-79
2021/06/07 11:21:47;;;;;;;10.83;4.63;;;;;;;26.73;31.06;99155.80;125903;1093;103086;-83
2021/06/07 11:24:45;;;;;;;7.13;4.33;;;;;;;26.67;31.20;99159.41;125717;1093;102997;-84
2021/06/07 11:27:33;;;;;;;6.40;3.63;;;;;;;26.63;31.23;99166.34;126152;1093;102988;-78
2021/06/07 11:30:14;;;;;;;11.35;4.30;;;;;;;26.59;31.30;99162.37;126217;1092;102962;-81